Time;durP1;ratioP1;P1;durP2;ratioP2;P2;SDS_P1;SDS_P2;PMS_P1;PMS_P2;Temp;Humidity;BMP_temperature;BMP_pressure;BME280_temperature;BME280_humidity;BME280_pressure;Samples;Min_cycle;Max_cycle;Signal;HPM_P1;HPM_P2
2021/03/20 00:00:54;;;;;;;22.92;3.30;;;;;;;;;;4980051;28;20030;-58
2021/03/20 00:03:21;;;;;;;17.38;2.85;;;;;;;;;;4980285;28;20104;-57
2021/03/20 00:05:49;;;;;;;17.15;3.42;;;;;;;;;;4975789;28;20522;-53
2021/03/20 00:08:18;;;;;;;17.08;2.95;;;;;;;;;;4984288;28;20018;-61
2021/03/20 00:10:46;;;;;;;18.60;2.67;;;;;;;;;;4983946;28;20028;-63
2021/03/20 00:13:14;;;;;;;23.98;2.65;;;;;;;;;;4986407;28;20108;-61
2021/03/20 00:15:41;;;;;;;8.80;2.72;;;;;;;;;;4986968;28;20035;-62
2021/03/20 00:18:08;;;;;;;14.25;2.85;;;;;;;;;;4986621;28;20093;-59
2021/03/20 00:20:37;;;;;;;15.93;2.80;;;;;;;;;;4985790;28;20038;-65
2021/03/20 00:23:04;;;;;;;13.45;2.88;;;;;;;;;;4986661;28;20026;-64
2021/03/20 00:25:31;;;;;;;14.60;2.88;;;;;;;;;;4971315;28;20371;-58
2021/03/20 00:28:01;;;;;;;16.17;2.50;;;;;;;;;;4986058;28;20064;-59
2021/03/20 00:30:28;;;;;;;17.25;2.92;;;;;;;;;;4987168;28;20026;-60
2021/03/20 00:32:55;;;;;;;14.88;2.70;;;;;;;;;;4979714;28;20023;-55
2021/03/20 00:35:23;;;;;;;15.18;2.67;;;;;;;;;;4986716;28;20031;-59
2021/03/20 00:37:50;;;;;;;11.68;2.88;;;;;;;;;;4972627;28;20045;-58
2021/03/20 00:40:19;;;;;;;12.07;2.72;;;;;;;;;;4985842;28;20017;-58
2021/03/20 00:42:46;;;;;;;14.93;3.00;;;;;;;;;;4984533;28;20065;-58
2021/03/20 00:45:14;;;;;;;10.23;2.83;;;;;;;;;;4976823;28;20031;-54
2021/03/20 00:47:42;;;;;;;12.73;2.55;;;;;;;;;;4980942;28;20030;-59
2021/03/20 00:50:09;;;;;;;8.65;2.60;;;;;;;;;;4985972;28;20018;-58
2021/03/20 00:52:36;;;;;;;11.07;2.95;;;;;;;;;;4977635;28;20030;-60
2021/03/20 00:55:03;;;;;;;13.88;3.00;;;;;;;;;;4988954;28;20113;-62
2021/03/20 00:57:30;;;;;;;12.18;2.90;;;;;;;;;;4987218;28;20466;-58
2021/03/20 00:59:57;;;;;;;8.95;2.72;;;;;;;;;;4973129;28;20027;-59
2021/03/20 01:02:24;;;;;;;8.80;2.63;;;;;;;;;;4972623;28;20030;-57
2021/03/20 01:04:51;;;;;;;12.20;2.65;;;;;;;;;;4988124;28;20061;-58
2021/03/20 01:07:19;;;;;;;18.95;3.45;;;;;;;;;;4987909;28;20034;-59
2021/03/20 01:09:46;;;;;;;16.55;3.35;;;;;;;;;;4991518;28;20074;-59
2021/03/20 01:12:13;;;;;;;15.18;3.03;;;;;;;;;;4966993;28;20422;-58
2021/03/20 01:14:40;;;;;;;12.45;3.42;;;;;;;;;;4989154;28;20039;-61
2021/03/20 01:17:07;;;;;;;11.57;2.60;;;;;;;;;;4987228;28;20025;-60
2021/03/20 01:19:34;;;;;;;18.88;3.20;;;;;;;;;;4988500;28;20512;-60
2021/03/20 01:22:01;;;;;;;13.88;3.00;;;;;;;;;;4978768;28;20513;-61
2021/03/20 01:24:28;;;;;;;18.40;3.00;;;;;;;;;;4978379;28;20058;-63
2021/03/20 01:26:55;;;;;;;16.98;3.35;;;;;;;;;;4977651;28;21461;-56
2021/03/20 01:29:22;;;;;;;12.18;2.83;;;;;;;;;;4982249;28;20030;-61
2021/03/20 01:31:51;;;;;;;15.95;3.17;;;;;;;;;;4984993;28;20019;-65
2021/03/20 01:34:18;;;;;;;10.57;2.97;;;;;;;;;;4978762;28;20105;-65
2021/03/20 01:36:45;;;;;;;14.13;3.05;;;;;;;;;;4981228;28;20030;-62
2021/03/20 01:39:12;;;;;;;12.27;3.20;;;;;;;;;;4988465;28;20502;-54
2021/03/20 01:41:41;;;;;;;12.80;2.85;;;;;;;;;;4987492;28;20517;-57
2021/03/20 01:44:08;;;;;;;12.75;3.10;;;;;;;;;;4985241;28;20022;-57
2021/03/20 01:46:41;;;;;;;12.45;2.75;;;;;;;;;;4973107;28;20474;-60
2021/03/20 01:49:20;;;;;;;9.60;2.55;;;;;;;;;;4986707;28;20022;-55
2021/03/20 01:51:55;;;;;;;11.43;3.10;;;;;;;;;;4990207;28;20026;-57
2021/03/20 01:54:22;;;;;;;12.40;2.53;;;;;;;;;;4981466;28;20057;-58
2021/03/20 01:56:52;;;;;;;14.40;2.58;;;;;;;;;;4983585;28;20058;-59
2021/03/20 01:59:20;;;;;;;8.90;2.38;;;;;;;;;;4990335;28;20093;-62
2021/03/20 02:01:47;;;;;;;11.10;2.60;;;;;;;;;;4993410;28;20109;-65
2021/03/20 02:04:15;;;;;;;8.82;2.88;;;;;;;;;;4993341;28;20422;-51
2021/03/20 02:06:42;;;;;;;11.50;2.72;;;;;;;;;;4994885;28;20038;-59
2021/03/20 02:09:11;;;;;;;10.90;2.22;;;;;;;;;;4977809;28;20454;-64
2021/03/20 02:11:38;;;;;;;10.35;2.38;;;;;;;;;;4994466;28;20026;-61
2021/03/20 02:14:14;;;;;;;6.97;2.13;;;;;;;;;;4992936;28;20026;-59
2021/03/20 02:16:59;;;;;;;12.18;2.55;;;;;;;;;;4991250;28;20031;-60
2021/03/20 02:19:32;;;;;;;5.93;1.98;;;;;;;;;;4992426;28;20034;-61
2021/03/20 02:22:04;;;;;;;8.65;2.17;;;;;;;;;;4993082;28;20042;-52
2021/03/20 02:24:31;;;;;;;9.10;2.53;;;;;;;;;;4975208;28;20066;-67
2021/03/20 02:27:06;;;;;;;9.25;2.17;;;;;;;;;;4957712;28;20729;-56
2021/03/20 02:29:50;;;;;;;10.10;2.00;;;;;;;;;;4982750;28;20027;-66
2021/03/20 02:32:32;;;;;;;7.45;2.00;;;;;;;;;;4994081;28;20161;-69
2021/03/20 02:35:17;;;;;;;8.43;2.25;;;;;;;;;;4991396;28;20026;-65
2021/03/20 02:37:47;;;;;;;8.32;1.98;;;;;;;;;;4975340;28;20451;-66
2021/03/20 02:40:14;;;;;;;7.40;2.25;;;;;;;;;;4993738;28;20022;-64
2021/03/20 02:42:41;;;;;;;9.48;2.72;;;;;;;;;;4993678;28;20018;-59
2021/03/20 02:45:08;;;;;;;9.40;2.38;;;;;;;;;;4993299;28;20031;-64
2021/03/20 02:47:40;;;;;;;8.02;1.90;;;;;;;;;;4992152;28;20494;-57
2021/03/20 02:50:14;;;;;;;6.82;1.85;;;;;;;;;;4975987;28;20042;-64
2021/03/20 02:52:46;;;;;;;5.40;1.73;;;;;;;;;;4993139;28;20026;-61
2021/03/20 02:55:19;;;;;;;10.98;2.40;;;;;;;;;;4976184;28;20061;-61
2021/03/20 02:57:51;;;;;;;5.85;1.77;;;;;;;;;;4993517;28;20022;-62
2021/03/20 03:00:21;;;;;;;4.63;1.65;;;;;;;;;;4991680;28;20109;-58
2021/03/20 03:02:49;;;;;;;6.35;1.92;;;;;;;;;;4992983;28;20050;-62
2021/03/20 03:05:19;;;;;;;5.40;1.80;;;;;;;;;;4993532;28;20045;-64
2021/03/20 03:07:49;;;;;;;7.72;1.90;;;;;;;;;;4992904;28;20106;-64
2021/03/20 03:10:27;;;;;;;6.85;1.95;;;;;;;;;;4992821;28;20043;-58
2021/03/20 03:12:57;;;;;;;6.80;1.67;;;;;;;;;;4992037;28;20030;-62
2021/03/20 03:15:27;;;;;;;6.13;1.52;;;;;;;;;;4990866;28;20144;-64
2021/03/20 03:18:07;;;;;;;7.50;1.75;;;;;;;;;;4975326;28;20025;-63
2021/03/20 03:20:39;;;;;;;7.30;2.15;;;;;;;;;;4974275;28;20074;-71
2021/03/20 03:23:11;;;;;;;5.57;1.60;;;;;;;;;;4973638;28;20758;-63
2021/03/20 03:25:40;;;;;;;4.72;1.45;;;;;;;;;;4974057;28;20055;-61
2021/03/20 03:28:08;;;;;;;4.53;1.60;;;;;;;;;;4973819;28;20026;-58
2021/03/20 03:30:36;;;;;;;6.28;1.42;;;;;;;;;;4974333;28;20102;-59
2021/03/20 03:33:08;;;;;;;5.03;1.48;;;;;;;;;;4984958;28;20038;-52
2021/03/20 03:35:37;;;;;;;4.85;1.55;;;;;;;;;;4993652;28;20120;-59
2021/03/20 03:38:20;;;;;;;5.05;1.50;;;;;;;;;;4992900;28;20023;-57
2021/03/20 03:40:49;;;;;;;5.85;1.75;;;;;;;;;;4993660;28;20026;-57
2021/03/20 03:43:20;;;;;;;8.00;1.85;;;;;;;;;;4992717;28;20141;-58
2021/03/20 03:45:48;;;;;;;7.25;1.83;;;;;;;;;;4990558;28;20490;-57
2021/03/20 03:48:16;;;;;;;6.60;1.40;;;;;;;;;;4993341;28;20101;-57
2021/03/20 03:50:44;;;;;;;4.40;1.52;;;;;;;;;;4992613;28;20382;-57
2021/03/20 03:53:11;;;;;;;7.13;2.10;;;;;;;;;;4993378;28;20478;-58
2021/03/20 03:55:39;;;;;;;6.45;1.67;;;;;;;;;;4992354;28;20038;-58
2021/03/20 03:58:22;;;;;;;6.20;1.75;;;;;;;;;;4993123;28;20021;-59
2021/03/20 04:00:56;;;;;;;8.43;1.70;;;;;;;;;;4990315;28;20033;-58
2021/03/20 04:03:41;;;;;;;5.57;1.63;;;;;;;;;;4989962;28;20018;-58
2021/03/20 04:06:11;;;;;;;5.82;1.55;;;;;;;;;;4990518;28;20153;-58
2021/03/20 04:08:41;;;;;;;4.30;1.50;;;;;;;;;;4993291;28;20015;-58
2021/03/20 04:11:31;;;;;;;5.43;1.40;;;;;;;;;;4990548;28;20061;-58
2021/03/20 04:14:21;;;;;;;6.63;1.70;;;;;;;;;;4992435;28;20109;-59
2021/03/20 04:16:48;;;;;;;6.55;1.83;;;;;;;;;;4981529;28;20074;-59
2021/03/20 04:19:15;;;;;;;7.60;1.73;;;;;;;;;;4992127;28;20023;-59
2021/03/20 04:21:42;;;;;;;4.63;1.58;;;;;;;;;;4992007;28;20141;-58
2021/03/20 04:24:14;;;;;;;4.10;1.48;;;;;;;;;;4993525;28;20022;-59
2021/03/20 04:26:44;;;;;;;4.70;1.70;;;;;;;;;;4992376;28;20415;-59
2021/03/20 04:29:17;;;;;;;4.60;1.38;;;;;;;;;;4993420;28;20025;-58
2021/03/20 04:31:56;;;;;;;7.22;1.80;;;;;;;;;;4992071;28;20033;-58
2021/03/20 04:34:41;;;;;;;5.03;1.88;;;;;;;;;;4990614;28;20049;-57
2021/03/20 04:37:13;;;;;;;5.07;1.60;;;;;;;;;;4990250;28;20034;-59
2021/03/20 04:39:43;;;;;;;6.27;1.80;;;;;;;;;;4992303;28;20100;-58
2021/03/20 04:42:11;;;;;;;5.60;1.83;;;;;;;;;;4989570;28;20262;-59
2021/03/20 04:44:39;;;;;;;5.78;1.60;;;;;;;;;;4992584;28;20022;-58
2021/03/20 04:47:12;;;;;;;7.80;1.80;;;;;;;;;;4991625;28;20022;-58
2021/03/20 04:49:42;;;;;;;5.90;1.58;;;;;;;;;;4992656;28;20589;-58
2021/03/20 04:52:11;;;;;;;6.60;1.35;;;;;;;;;;4989528;28;20029;-58
2021/03/20 04:54:39;;;;;;;5.18;1.60;;;;;;;;;;4992132;28;20022;-58
2021/03/20 04:57:12;;;;;;;6.18;2.00;;;;;;;;;;4991679;28;20137;-58
2021/03/20 04:59:54;;;;;;;6.32;1.63;;;;;;;;;;4992385;28;20025;-56
2021/03/20 05:02:24;;;;;;;4.45;1.58;;;;;;;;;;4990970;28;20493;-58
2021/03/20 05:04:53;;;;;;;4.93;1.65;;;;;;;;;;4992735;28;20702;-58
2021/03/20 05:07:20;;;;;;;4.47;1.40;;;;;;;;;;4992183;28;20033;-58
2021/03/20 05:09:55;;;;;;;6.18;1.35;;;;;;;;;;4992165;28;20045;-58
2021/03/20 05:12:26;;;;;;;5.03;1.90;;;;;;;;;;4991334;28;20104;-58
2021/03/20 05:14:57;;;;;;;3.20;1.30;;;;;;;;;;4992276;28;20077;-59
2021/03/20 05:17:24;;;;;;;6.32;1.63;;;;;;;;;;4992260;28;20505;-59
2021/03/20 05:19:51;;;;;;;5.55;1.40;;;;;;;;;;4991989;28;20022;-58
2021/03/20 05:22:21;;;;;;;6.57;1.80;;;;;;;;;;4991872;28;20050;-58
2021/03/20 05:24:49;;;;;;;4.38;1.40;;;;;;;;;;4991969;28;20062;-58
2021/03/20 05:27:20;;;;;;;3.90;1.20;;;;;;;;;;4992394;28;20006;-57
2021/03/20 05:29:47;;;;;;;2.92;1.35;;;;;;;;;;4991832;28;20018;-58
2021/03/20 05:32:15;;;;;;;6.50;1.70;;;;;;;;;;4991624;28;20017;-57
2021/03/20 05:34:44;;;;;;;5.85;1.50;;;;;;;;;;4991983;28;20018;-58
2021/03/20 05:37:18;;;;;;;9.90;1.60;;;;;;;;;;4992072;28;20081;-58
2021/03/20 05:39:45;;;;;;;5.03;1.50;;;;;;;;;;4991809;28;20092;-57
2021/03/20 05:42:15;;;;;;;5.95;1.50;;;;;;;;;;4992360;28;20110;-58
2021/03/20 05:44:58;;;;;;;6.78;1.55;;;;;;;;;;4992103;28;20030;-58
2021/03/20 05:47:24;;;;;;;4.95;1.40;;;;;;;;;;4992044;28;20393;-57
2021/03/20 05:50:01;;;;;;;5.13;1.48;;;;;;;;;;4991312;28;20140;-58
2021/03/20 05:52:33;;;;;;;6.25;1.42;;;;;;;;;;4992147;28;20502;-59
2021/03/20 05:55:11;;;;;;;5.63;1.80;;;;;;;;;;4991805;28;20037;-57
2021/03/20 05:57:45;;;;;;;6.70;1.98;;;;;;;;;;4991888;28;20418;-58
2021/03/20 06:00:26;;;;;;;4.13;1.40;;;;;;;;;;4991705;28;20049;-58
2021/03/20 06:02:56;;;;;;;6.68;1.55;;;;;;;;;;4992264;28;20058;-57
2021/03/20 06:05:23;;;;;;;4.40;1.67;;;;;;;;;;4990713;28;20023;-58
2021/03/20 06:08:08;;;;;;;6.65;1.38;;;;;;;;;;4991593;28;20031;-58
2021/03/20 06:10:41;;;;;;;5.63;1.30;;;;;;;;;;4991593;28;20073;-58
2021/03/20 06:13:16;;;;;;;4.35;1.42;;;;;;;;;;4991857;28;20034;-59
2021/03/20 06:15:59;;;;;;;5.57;1.20;;;;;;;;;;4974102;28;20042;-58
2021/03/20 06:18:38;;;;;;;5.65;1.50;;;;;;;;;;4991765;28;20027;-58
2021/03/20 06:21:15;;;;;;;7.00;1.50;;;;;;;;;;4991241;28;20046;-58
2021/03/20 06:24:04;;;;;;;6.13;1.50;;;;;;;;;;4993912;28;20032;-58
2021/03/20 06:26:34;;;;;;;4.53;1.65;;;;;;;;;;4995338;28;20033;-59
2021/03/20 06:29:04;;;;;;;2.75;1.13;;;;;;;;;;4995439;28;20033;-57
2021/03/20 06:31:43;;;;;;;6.53;1.58;;;;;;;;;;4995226;28;20022;-59
2021/03/20 06:34:16;;;;;;;4.40;1.50;;;;;;;;;;4995523;28;20026;-60
2021/03/20 06:36:46;;;;;;;5.50;1.60;;;;;;;;;;4994962;28;20046;-58
2021/03/20 06:39:26;;;;;;;3.90;1.40;;;;;;;;;;4995098;28;20390;-60
2021/03/20 06:42:04;;;;;;;4.82;1.50;;;;;;;;;;4995044;28;20433;-58
2021/03/20 06:44:42;;;;;;;4.03;1.17;;;;;;;;;;4995282;28;20060;-60
2021/03/20 06:47:28;;;;;;;3.83;1.10;;;;;;;;;;4995104;28;20037;-59
2021/03/20 06:50:08;;;;;;;3.00;1.30;;;;;;;;;;4995090;28;20062;-58
2021/03/20 06:52:37;;;;;;;4.32;1.50;;;;;;;;;;4995053;28;20022;-59
2021/03/20 06:55:07;;;;;;;5.07;1.30;;;;;;;;;;4977526;28;20065;-59
2021/03/20 06:57:34;;;;;;;7.63;1.70;;;;;;;;;;4994918;28;20391;-59
2021/03/20 07:00:21;;;;;;;4.28;1.70;;;;;;;;;;4977163;28;20022;-59
2021/03/20 07:03:14;;;;;;;4.93;1.38;;;;;;;;;;4994775;28;20034;-59
2021/03/20 07:05:41;;;;;;;3.80;1.33;;;;;;;;;;4965193;28;20038;-59
2021/03/20 07:08:14;;;;;;;6.88;1.48;;;;;;;;;;4994181;28;20010;-59
2021/03/20 07:10:43;;;;;;;4.35;1.33;;;;;;;;;;4994687;28;20081;-59
2021/03/20 07:13:10;;;;;;;5.25;1.52;;;;;;;;;;4994692;28;20025;-59
2021/03/20 07:15:38;;;;;;;2.40;1.00;;;;;;;;;;4994407;28;20490;-58
2021/03/20 07:18:40;;;;;;;4.22;1.60;;;;;;;;;;4994397;28;20101;-56
2021/03/20 07:21:25;;;;;;;5.85;1.58;;;;;;;;;;4915196;29;20513;-59
2021/03/20 07:24:00;;;;;;;2.78;1.10;;;;;;;;;;4988945;28;20054;-56
2021/03/20 07:26:28;;;;;;;3.38;1.33;;;;;;;;;;4994674;28;20105;-58
2021/03/20 07:28:56;;;;;;;4.82;1.23;;;;;;;;;;4993394;28;20053;-57
2021/03/20 07:31:24;;;;;;;2.50;1.33;;;;;;;;;;4993617;28;20050;-59
2021/03/20 07:33:54;;;;;;;5.25;1.33;;;;;;;;;;4994147;28;20101;-59
2021/03/20 07:36:25;;;;;;;3.42;1.50;;;;;;;;;;4993087;28;20034;-58
2021/03/20 07:39:10;;;;;;;3.97;1.35;;;;;;;;;;4994135;28;20027;-59
2021/03/20 07:41:57;;;;;;;6.22;1.80;;;;;;;;;;4993770;28;20030;-59
2021/03/20 07:44:25;;;;;;;5.05;1.48;;;;;;;;;;4994102;28;20113;-58
2021/03/20 07:46:53;;;;;;;4.57;1.45;;;;;;;;;;4993303;28;20019;-57
2021/03/20 07:49:30;;;;;;;4.80;1.30;;;;;;;;;;4993640;28;20014;-58
2021/03/20 07:52:17;;;;;;;3.03;1.13;;;;;;;;;;4993347;28;20050;-58
2021/03/20 07:54:44;;;;;;;4.47;1.17;;;;;;;;;;4980698;28;20044;-57
2021/03/20 07:57:13;;;;;;;3.58;1.33;;;;;;;;;;4992862;28;20435;-57
2021/03/20 07:59:47;;;;;;;5.28;1.77;;;;;;;;;;4993652;28;20438;-58
2021/03/20 08:02:27;;;;;;;3.70;1.45;;;;;;;;;;4993424;28;20101;-58
2021/03/20 08:05:13;;;;;;;3.90;1.10;;;;;;;;;;4976468;28;20076;-58
2021/03/20 08:07:49;;;;;;;5.15;1.73;;;;;;;;;;4993438;28;20022;-57
2021/03/20 08:10:19;;;;;;;6.95;1.95;;;;;;;;;;4992695;28;20027;-58
2021/03/20 08:12:55;;;;;;;3.78;1.52;;;;;;;;;;4993141;28;20104;-58
2021/03/20 08:15:31;;;;;;;6.25;1.73;;;;;;;;;;4993376;28;20038;-58
2021/03/20 08:17:59;;;;;;;4.82;1.65;;;;;;;;;;4993164;28;20030;-58
2021/03/20 08:20:26;;;;;;;3.88;1.40;;;;;;;;;;4993201;28;20062;-58
2021/03/20 08:23:04;;;;;;;4.97;1.48;;;;;;;;;;4992903;28;20386;-58
2021/03/20 08:25:30;;;;;;;2.97;1.25;;;;;;;;;;4993316;28;20022;-57
2021/03/20 08:27:57;;;;;;;3.08;1.30;;;;;;;;;;4992970;28;20044;-58
2021/03/20 08:30:40;;;;;;;4.28;1.30;;;;;;;;;;4993128;28;20022;-56
2021/03/20 08:33:25;;;;;;;4.88;1.55;;;;;;;;;;4992781;28;20085;-57
2021/03/20 08:36:30;;;;;;;4.55;1.73;;;;;;;;;;4993050;28;20532;-58
2021/03/20 08:39:15;;;;;;;3.10;1.10;;;;;;;;;;4913568;29;20025;-58
2021/03/20 08:42:00;;;;;;;3.92;1.38;;;;;;;;;;4914156;29;20039;-58
2021/03/20 08:44:32;;;;;;;4.78;1.25;;;;;;;;;;4971206;28;20038;-58
2021/03/20 08:46:59;;;;;;;;;;;;;;;;;;4993207;28;20502;-58
2021/03/20 08:49:36;;;;;;;3.47;1.27;;;;;;;;;;4992109;28;19957;-58
2021/03/20 08:52:12;;;;;;;2.95;1.10;;;;;;;;;;4992895;28;20025;-58
2021/03/20 08:54:50;;;;;;;2.72;1.38;;;;;;;;;;4992111;28;20391;-59
2021/03/20 08:57:37;;;;;;;4.18;1.25;;;;;;;;;;4992792;28;20800;-60
2021/03/20 09:00:24;;;;;;;3.60;1.45;;;;;;;;;;4981886;28;20035;-60
2021/03/20 09:02:54;;;;;;;7.03;1.30;;;;;;;;;;4992097;28;20096;-59
2021/03/20 09:05:28;;;;;;;3.85;1.00;;;;;;;;;;4974718;28;20026;-59
2021/03/20 09:08:17;;;;;;;2.58;1.23;;;;;;;;;;4992705;28;20027;-59
2021/03/20 09:10:48;;;;;;;2.75;1.20;;;;;;;;;;4991574;28;20030;-60
2021/03/20 09:13:23;;;;;;;3.78;1.40;;;;;;;;;;4992226;28;20026;-60
2021/03/20 09:15:53;;;;;;;4.22;1.40;;;;;;;;;;4992106;28;20042;-59
2021/03/20 09:18:20;;;;;;;5.60;1.85;;;;;;;;;;4975321;28;20490;-59
2021/03/20 09:21:01;;;;;;;4.15;1.48;;;;;;;;;;4991620;28;20402;-59
2021/03/20 09:23:28;;;;;;;4.88;1.20;;;;;;;;;;4992453;28;20027;-60
2021/03/20 09:25:57;;;;;;;4.70;1.27;;;;;;;;;;4991953;28;20101;-59
2021/03/20 09:28:28;;;;;;;3.03;1.30;;;;;;;;;;4992499;28;20046;-58
2021/03/20 09:31:21;;;;;;;4.88;1.27;;;;;;;;;;4991523;28;20084;-58
2021/03/20 09:33:48;;;;;;;3.80;1.10;;;;;;;;;;4975356;28;20085;-57
2021/03/20 09:36:21;;;;;;;3.47;1.23;;;;;;;;;;4991444;28;20043;-58
2021/03/20 09:38:48;;;;;;;2.35;1.10;;;;;;;;;;4992370;28;20054;-59
2021/03/20 09:41:15;;;;;;;2.45;1.15;;;;;;;;;;4974080;28;20486;-58
2021/03/20 09:43:43;;;;;;;2.55;1.00;;;;;;;;;;4992327;28;20478;-57
2021/03/20 09:46:27;;;;;;;3.05;1.27;;;;;;;;;;4991795;28;20035;-58
2021/03/20 09:48:55;;;;;;;1.88;1.02;;;;;;;;;;4991780;28;20490;-58
2021/03/20 09:51:40;;;;;;;2.72;1.30;;;;;;;;;;4991575;28;20117;-59
2021/03/20 09:54:26;;;;;;;3.03;1.02;;;;;;;;;;4992399;28;20418;-58
2021/03/20 09:56:59;;;;;;;1.98;1.00;;;;;;;;;;4991986;28;20030;-58
2021/03/20 09:59:33;;;;;;;2.20;0.98;;;;;;;;;;4995735;28;20105;-58
2021/03/20 10:02:12;;;;;;;2.70;1.05;;;;;;;;;;4995345;28;20030;-58
2021/03/20 10:04:39;;;;;;;5.07;1.67;;;;;;;;;;4995902;28;20026;-58
2021/03/20 10:07:20;;;;;;;3.38;1.10;;;;;;;;;;4995530;28;20018;-58
2021/03/20 10:09:59;;;;;;;2.92;0.98;;;;;;;;;;4996143;28;20026;-59
2021/03/20 10:12:28;;;;;;;3.47;1.10;;;;;;;;;;4995454;28;20532;-57
2021/03/20 10:15:00;;;;;;;2.83;1.00;;;;;;;;;;4995440;28;20092;-58
2021/03/20 10:17:28;;;;;;;2.42;1.15;;;;;;;;;;4994859;28;20648;-58
2021/03/20 10:20:05;;;;;;;4.53;1.17;;;;;;;;;;4977983;28;20486;-59
2021/03/20 10:22:34;;;;;;;3.25;1.13;;;;;;;;;;4995312;28;20740;-59
2021/03/20 10:25:01;;;;;;;3.33;1.08;;;;;;;;;;4995721;28;20129;-58
2021/03/20 10:27:34;;;;;;;3.17;1.45;;;;;;;;;;4994867;28;20408;-57
2021/03/20 10:30:00;;;;;;;;;;;;;;;;;;4995900;28;20029;-58
2021/03/20 10:32:27;;;;;;;4.20;1.17;;;;;;;;;;4994994;28;19913;-58
2021/03/20 10:34:55;;;;;;;2.30;1.00;;;;;;;;;;4994911;28;20050;-58
2021/03/20 10:37:29;;;;;;;3.25;1.27;;;;;;;;;;4977912;28;20486;-58
2021/03/20 10:40:08;;;;;;;2.50;0.90;;;;;;;;;;4994999;28;20033;-58
2021/03/20 10:42:38;;;;;;;1.90;0.90;;;;;;;;;;4995477;28;20053;-58
2021/03/20 10:45:07;;;;;;;2.33;1.00;;;;;;;;;;4994711;28;20041;-57
2021/03/20 10:47:36;;;;;;;2.80;1.00;;;;;;;;;;4995339;28;20113;-58
2021/03/20 10:50:29;;;;;;;2.65;1.00;;;;;;;;;;4994666;28;20050;-57
2021/03/20 10:53:02;;;;;;;3.35;1.08;;;;;;;;;;4991814;28;20065;-58
2021/03/20 10:55:41;;;;;;;2.42;0.95;;;;;;;;;;4977279;28;20085;-58
2021/03/20 10:58:09;;;;;;;2.63;1.05;;;;;;;;;;4995259;28;20022;-57
2021/03/20 11:00:42;;;;;;;3.20;1.02;;;;;;;;;;4994361;28;20021;-59
2021/03/20 11:03:10;;;;;;;2.78;1.05;;;;;;;;;;4994001;28;20026;-58
2021/03/20 11:05:40;;;;;;;1.88;1.02;;;;;;;;;;4994159;28;20025;-58
2021/03/20 11:08:27;;;;;;;3.63;1.10;;;;;;;;;;4994700;28;20042;-57
2021/03/20 11:11:12;;;;;;;2.42;0.95;;;;;;;;;;4974362;28;20126;-58
2021/03/20 11:13:42;;;;;;;4.85;1.23;;;;;;;;;;4976484;28;20027;-57
2021/03/20 11:16:14;;;;;;;5.90;0.93;;;;;;;;;;4974834;28;20487;-57
2021/03/20 11:18:55;;;;;;;2.72;0.82;;;;;;;;;;4988847;28;20113;-57
2021/03/20 11:21:33;;;;;;;3.60;0.90;;;;;;;;;;4990158;28;20050;-57
2021/03/20 11:24:03;;;;;;;7.70;1.02;;;;;;;;;;4993811;28;20030;-58
2021/03/20 11:26:36;;;;;;;4.32;1.15;;;;;;;;;;4992819;28;20105;-58
2021/03/20 11:29:04;;;;;;;5.03;1.23;;;;;;;;;;4990800;28;20023;-56
2021/03/20 11:31:36;;;;;;;4.20;1.13;;;;;;;;;;4987786;28;20105;-57
2021/03/20 11:34:03;;;;;;;;;;;;;;;;;;4994761;28;20027;-56
2021/03/20 11:36:30;;;;;;;2.55;1.02;;;;;;;;;;4993237;28;19917;-57
2021/03/20 11:38:57;;;;;;;4.38;1.10;;;;;;;;;;4994156;28;20393;-58
2021/03/20 11:41:26;;;;;;;5.88;1.15;;;;;;;;;;4992866;28;20033;-56
2021/03/20 11:43:53;;;;;;;3.60;1.30;;;;;;;;;;4987790;28;20386;-58
2021/03/20 11:46:22;;;;;;;3.90;1.20;;;;;;;;;;4979795;28;20026;-60
2021/03/20 11:48:53;;;;;;;5.20;1.30;;;;;;;;;;4993056;28;20044;-59
2021/03/20 11:51:29;;;;;;;8.25;1.30;;;;;;;;;;4993525;28;20018;-58
2021/03/20 11:54:07;;;;;;;5.18;0.93;;;;;;;;;;4993686;28;20409;-54
2021/03/20 11:56:35;;;;;;;4.88;1.30;;;;;;;;;;4993171;28;20125;-57
2021/03/20 11:59:20;;;;;;;4.03;1.25;;;;;;;;;;4993616;28;20081;-57
2021/03/20 12:01:49;;;;;;;4.55;1.20;;;;;;;;;;4993427;28;20478;-58
2021/03/20 12:04:21;;;;;;;5.80;1.20;;;;;;;;;;4976257;28;20049;-58
2021/03/20 12:06:47;;;;;;;;;;;;;;;;;;4994234;28;20509;-59
2021/03/20 12:09:23;;;;;;;3.40;1.08;;;;;;;;;;4993178;28;19929;-58
2021/03/20 12:11:51;;;;;;;4.63;1.20;;;;;;;;;;4993586;28;20054;-58
2021/03/20 12:14:27;;;;;;;5.65;1.30;;;;;;;;;;4993148;28;20022;-59
2021/03/20 12:17:02;;;;;;;2.15;1.00;;;;;;;;;;4990866;28;20479;-57
2021/03/20 12:19:29;;;;;;;4.18;1.20;;;;;;;;;;4992336;28;20034;-58
2021/03/20 12:21:56;;;;;;;3.80;1.30;;;;;;;;;;4992719;28;20170;-58
2021/03/20 12:24:35;;;;;;;5.07;1.40;;;;;;;;;;4992916;28;20029;-56
2021/03/20 12:27:21;;;;;;;4.20;1.25;;;;;;;;;;4993161;28;20090;-59
2021/03/20 12:29:48;;;;;;;2.90;1.10;;;;;;;;;;4992705;28;20053;-57
2021/03/20 12:32:32;;;;;;;6.22;1.45;;;;;;;;;;4993293;28;20034;-59
2021/03/20 12:35:17;;;;;;;2.58;1.02;;;;;;;;;;4992411;28;20557;-58
2021/03/20 12:37:48;;;;;;;4.13;1.20;;;;;;;;;;4993153;28;20114;-56
2021/03/20 12:40:17;;;;;;;4.22;1.20;;;;;;;;;;4992576;28;20033;-57
2021/03/20 12:42:44;;;;;;;2.92;1.20;;;;;;;;;;4975939;28;20030;-57
2021/03/20 12:45:17;;;;;;;4.10;1.15;;;;;;;;;;4992300;28;20038;-57
2021/03/20 12:47:44;;;;;;;3.30;1.30;;;;;;;;;;4984994;28;20018;-58
2021/03/20 12:50:11;;;;;;;3.72;1.30;;;;;;;;;;4991815;28;20018;-57
2021/03/20 12:52:39;;;;;;;10.60;1.33;;;;;;;;;;4992821;28;20018;-53
2021/03/20 12:55:07;;;;;;;6.68;1.27;;;;;;;;;;4985686;28;20061;-62
2021/03/20 12:57:35;;;;;;;3.28;1.30;;;;;;;;;;4992600;28;20080;-57
2021/03/20 13:00:05;;;;;;;3.30;1.30;;;;;;;;;;4991963;28;20049;-57
2021/03/20 13:02:33;;;;;;;6.28;1.75;;;;;;;;;;4992465;28;20022;-55
2021/03/20 13:05:00;;;;;;;7.20;1.60;;;;;;;;;;4991495;28;20382;-59
2021/03/20 13:07:27;;;;;;;4.07;1.38;;;;;;;;;;4992522;28;20037;-58
2021/03/20 13:09:54;;;;;;;3.15;1.23;;;;;;;;;;4991733;28;20026;-61
2021/03/20 13:12:21;;;;;;;3.38;1.27;;;;;;;;;;4992195;28;20471;-60
2021/03/20 13:14:48;;;;;;;2.63;1.10;;;;;;;;;;4991779;28;20093;-60
2021/03/20 13:17:15;;;;;;;6.60;1.67;;;;;;;;;;4991803;28;20616;-54
2021/03/20 13:19:42;;;;;;;3.53;1.58;;;;;;;;;;4991761;28;20045;-61
2021/03/20 13:22:09;;;;;;;3.90;1.30;;;;;;;;;;4990720;28;20390;-52
2021/03/20 13:24:36;;;;;;;3.70;1.48;;;;;;;;;;4990520;28;20026;-54
2021/03/20 13:27:03;;;;;;;3.25;1.50;;;;;;;;;;4990463;28;20601;-55
2021/03/20 13:29:30;;;;;;;3.88;1.42;;;;;;;;;;4991226;28;20041;-56
2021/03/20 13:31:57;;;;;;;5.00;1.45;;;;;;;;;;4990784;28;20080;-56
2021/03/20 13:34:24;;;;;;;4.78;1.60;;;;;;;;;;4973165;28;20026;-57
2021/03/20 13:36:51;;;;;;;11.63;1.73;;;;;;;;;;4990488;28;20081;-55
2021/03/20 13:39:19;;;;;;;2.85;1.70;;;;;;;;;;4990772;28;20019;-58
2021/03/20 13:41:46;;;;;;;7.53;2.10;;;;;;;;;;4990799;28;20084;-59
2021/03/20 13:44:14;;;;;;;4.20;1.85;;;;;;;;;;4991425;28;20026;-60
2021/03/20 13:46:42;;;;;;;4.25;1.80;;;;;;;;;;4990346;28;20030;-56
2021/03/20 13:49:09;;;;;;;4.70;1.98;;;;;;;;;;4989458;28;20050;-56
2021/03/20 13:51:37;;;;;;;3.22;1.70;;;;;;;;;;4991423;28;20121;-57
2021/03/20 13:54:04;;;;;;;3.17;1.67;;;;;;;;;;4991216;28;20053;-62
2021/03/20 13:56:32;;;;;;;7.95;1.75;;;;;;;;;;4990957;28;20364;-60
2021/03/20 13:58:58;;;;;;;5.47;2.20;;;;;;;;;;4992031;28;20040;-61
2021/03/20 14:01:26;;;;;;;5.30;1.90;;;;;;;;;;4974085;28;20031;-61
2021/03/20 14:03:53;;;;;;;6.70;1.90;;;;;;;;;;4991553;28;20077;-62
2021/03/20 14:06:23;;;;;;;6.55;2.05;;;;;;;;;;4991606;28;20054;-64
2021/03/20 14:08:50;;;;;;;7.15;2.03;;;;;;;;;;4991180;28;20048;-54
2021/03/20 14:11:17;;;;;;;4.28;2.00;;;;;;;;;;4988919;28;20023;-51
2021/03/20 14:13:44;;;;;;;5.38;1.83;;;;;;;;;;4991094;28;20018;-56
2021/03/20 14:16:11;;;;;;;5.65;2.00;;;;;;;;;;4991676;28;20039;-54
2021/03/20 14:18:38;;;;;;;6.72;2.03;;;;;;;;;;4991153;28;20025;-55
2021/03/20 14:21:06;;;;;;;5.28;2.42;;;;;;;;;;4991139;28;20043;-56
2021/03/20 14:23:33;;;;;;;6.63;2.05;;;;;;;;;;4991487;28;20019;-56
2021/03/20 14:26:01;;;;;;;5.78;2.03;;;;;;;;;;4974407;28;20446;-54
2021/03/20 14:28:29;;;;;;;4.68;2.25;;;;;;;;;;4991177;28;20101;-55
2021/03/20 14:30:57;;;;;;;8.85;2.35;;;;;;;;;;4991459;28;20030;-57
2021/03/20 14:33:25;;;;;;;7.88;2.20;;;;;;;;;;4972832;28;20033;-52
2021/03/20 14:35:53;;;;;;;6.50;1.95;;;;;;;;;;4991417;28;20030;-52
2021/03/20 14:38:22;;;;;;;6.75;2.13;;;;;;;;;;4991313;28;20487;-51
2021/03/20 14:40:49;;;;;;;9.38;2.60;;;;;;;;;;4991293;28;20497;-55
2021/03/20 14:43:17;;;;;;;9.48;2.05;;;;;;;;;;4991219;28;20010;-55
2021/03/20 14:45:44;;;;;;;12.27;2.03;;;;;;;;;;4994129;28;20027;-52
2021/03/20 14:48:19;;;;;;;9.48;2.40;;;;;;;;;;4995005;28;20038;-54
2021/03/20 14:50:46;;;;;;;13.57;2.75;;;;;;;;;;4994693;28;20068;-54
2021/03/20 14:53:13;;;;;;;11.05;2.67;;;;;;;;;;4994738;28;20113;-55
2021/03/20 14:55:41;;;;;;;6.70;2.30;;;;;;;;;;4994585;28;20037;-55
2021/03/20 14:58:09;;;;;;;6.88;2.90;;;;;;;;;;4994505;28;20022;-54
2021/03/20 15:00:37;;;;;;;11.55;2.80;;;;;;;;;;4993976;28;20052;-54
2021/03/20 15:03:05;;;;;;;6.53;2.80;;;;;;;;;;4977073;28;20038;-55
2021/03/20 15:05:32;;;;;;;11.27;2.60;;;;;;;;;;4994472;28;20018;-52
2021/03/20 15:07:59;;;;;;;6.57;2.53;;;;;;;;;;4994158;28;20021;-56
2021/03/20 15:10:31;;;;;;;11.35;2.60;;;;;;;;;;4993668;28;20029;-55